sensor_id;sensor_type;location;lat;lon;timestamp;temperature;humidity
21338;DHT22;10827;50.878;4.382;2022-09-09T00:09:34;16.90;96.90
21338;DHT22;10827;50.878;4.382;2022-09-09T00:12:11;17.00;90.20
21338;DHT22;10827;50.878;4.382;2022-09-09T00:15:15;16.90;99.00
21338;DHT22;10827;50.878;4.382;2022-09-09T00:25:40;17.30;95.50
21338;DHT22;10827;50.878;4.382;2022-09-09T00:28:18;17.30;93.60
21338;DHT22;10827;50.878;4.382;2022-09-09T00:30:44;17.00;85.60
21338;DHT22;10827;50.878;4.382;2022-09-09T00:33:16;16.90;92.60
21338;DHT22;10827;50.878;4.382;2022-09-09T00:35:57;16.80;99.50
21338;DHT22;10827;50.878;4.382;2022-09-09T00:38:30;17.20;89.60
21338;DHT22;10827;50.878;4.382;2022-09-09T00:43:37;16.80;99.90
21338;DHT22;10827;50.878;4.382;2022-09-09T00:49:31;16.80;99.90
21338;DHT22;10827;50.878;4.382;2022-09-09T00:55:45;17.00;85.00
21338;DHT22;10827;50.878;4.382;2022-09-09T00:57:38;17.30;88.70
21338;DHT22;10827;50.878;4.382;2022-09-09T01:00:25;17.30;72.40
21338;DHT22;10827;50.878;4.382;2022-09-09T01:03:12;17.10;95.40
21338;DHT22;10827;50.878;4.382;2022-09-09T01:11:28;17.20;92.70
21338;DHT22;10827;50.878;4.382;2022-09-09T01:17:27;17.10;91.40
21338;DHT22;10827;50.878;4.382;2022-09-09T01:20:20;17.60;80.00
21338;DHT22;10827;50.878;4.382;2022-09-09T01:28:27;17.10;95.70
21338;DHT22;10827;50.878;4.382;2022-09-09T01:30:55;17.20;84.70
21338;DHT22;10827;50.878;4.382;2022-09-09T01:33:21;17.20;98.80
21338;DHT22;10827;50.878;4.382;2022-09-09T01:38:14;17.60;92.90
21338;DHT22;10827;50.878;4.382;2022-09-09T01:40:40;17.20;89.10
21338;DHT22;10827;50.878;4.382;2022-09-09T01:43:06;17.20;99.80
21338;DHT22;10827;50.878;4.382;2022-09-09T01:45:33;17.20;90.50
21338;DHT22;10827;50.878;4.382;2022-09-09T01:48:00;17.20;99.00
21338;DHT22;10827;50.878;4.382;2022-09-09T01:50:25;17.20;99.40
21338;DHT22;10827;50.878;4.382;2022-09-09T01:52:57;17.20;99.90
21338;DHT22;10827;50.878;4.382;2022-09-09T01:55:31;17.10;99.90
21338;DHT22;10827;50.878;4.382;2022-09-09T02:01:34;17.20;99.90
21338;DHT22;10827;50.878;4.382;2022-09-09T02:06:55;17.10;98.30
21338;DHT22;10827;50.878;4.382;2022-09-09T02:09:24;17.10;99.90
21338;DHT22;10827;50.878;4.382;2022-09-09T02:11:57;17.10;99.90
21338;DHT22;10827;50.878;4.382;2022-09-09T02:14:28;17.30;99.00
21338;DHT22;10827;50.878;4.382;2022-09-09T02:17:11;17.00;99.90
21338;DHT22;10827;50.878;4.382;2022-09-09T02:19:42;17.00;99.90
21338;DHT22;10827;50.878;4.382;2022-09-09T02:22:09;16.90;99.90
21338;DHT22;10827;50.878;4.382;2022-09-09T02:24:37;14.60;97.40
21338;DHT22;10827;50.878;4.382;2022-09-09T02:27:06;17.10;99.90
21338;DHT22;10827;50.878;4.382;2022-09-09T02:29:40;17.10;99.90
21338;DHT22;10827;50.878;4.382;2022-09-09T02:32:15;17.10;99.90
21338;DHT22;10827;50.878;4.382;2022-09-09T02:34:49;16.90;99.90
21338;DHT22;10827;50.878;4.382;2022-09-09T02:37:18;17.10;99.90
21338;DHT22;10827;50.878;4.382;2022-09-09T02:39:46;16.70;99.90
21338;DHT22;10827;50.878;4.382;2022-09-09T02:42:12;16.70;99.90
21338;DHT22;10827;50.878;4.382;2022-09-09T02:44:40;16.80;99.90
21338;DHT22;10827;50.878;4.382;2022-09-09T02:50:25;16.60;99.90
21338;DHT22;10827;50.878;4.382;2022-09-09T02:53:04;16.70;99.90
21338;DHT22;10827;50.878;4.382;2022-09-09T02:56:10;16.80;99.90
21338;DHT22;10827;50.878;4.382;2022-09-09T02:58:27;16.80;99.90
21338;DHT22;10827;50.878;4.382;2022-09-09T03:00:55;16.80;99.90
21338;DHT22;10827;50.878;4.382;2022-09-09T03:03:23;16.80;99.90
21338;DHT22;10827;50.878;4.382;2022-09-09T03:05:49;17.30;99.90
21338;DHT22;10827;50.878;4.382;2022-09-09T03:08:15;16.80;99.90
21338;DHT22;10827;50.878;4.382;2022-09-09T03:10:41;17.00;99.90
21338;DHT22;10827;50.878;4.382;2022-09-09T03:13:07;16.70;99.90
21338;DHT22;10827;50.878;4.382;2022-09-09T03:15:33;16.50;99.90
21338;DHT22;10827;50.878;4.382;2022-09-09T03:18:00;16.60;99.90
21338;DHT22;10827;50.878;4.382;2022-09-09T03:20:28;16.40;99.90
21338;DHT22;10827;50.878;4.382;2022-09-09T03:22:54;16.60;99.90
21338;DHT22;10827;50.878;4.382;2022-09-09T03:25:21;16.60;99.90
21338;DHT22;10827;50.878;4.382;2022-09-09T03:27:49;16.70;99.90
21338;DHT22;10827;50.878;4.382;2022-09-09T03:30:15;16.70;99.90
21338;DHT22;10827;50.878;4.382;2022-09-09T03:32:42;16.80;99.90
21338;DHT22;10827;50.878;4.382;2022-09-09T03:35:08;16.70;99.90
21338;DHT22;10827;50.878;4.382;2022-09-09T03:37:35;16.70;99.90
21338;DHT22;10827;50.878;4.382;2022-09-09T03:40:01;17.00;99.90
21338;DHT22;10827;50.878;4.382;2022-09-09T03:47:20;17.20;95.50
21338;DHT22;10827;50.878;4.382;2022-09-09T03:52:14;16.80;99.90
21338;DHT22;10827;50.878;4.382;2022-09-09T03:54:41;16.70;99.90
21338;DHT22;10827;50.878;4.382;2022-09-09T03:57:10;16.70;99.90
21338;DHT22;10827;50.878;4.382;2022-09-09T03:59:36;16.80;99.90
21338;DHT22;10827;50.878;4.382;2022-09-09T04:02:03;16.90;99.90
21338;DHT22;10827;50.878;4.382;2022-09-09T04:04:29;17.00;99.90
21338;DHT22;10827;50.878;4.382;2022-09-09T04:06:55;17.00;99.70
21338;DHT22;10827;50.878;4.382;2022-09-09T04:09:20;17.10;99.90
21338;DHT22;10827;50.878;4.382;2022-09-09T04:11:46;17.10;96.50
21338;DHT22;10827;50.878;4.382;2022-09-09T04:16:38;17.00;99.90
21338;DHT22;10827;50.878;4.382;2022-09-09T04:19:05;17.00;97.70
21338;DHT22;10827;50.878;4.382;2022-09-09T04:21:32;17.00;99.90
21338;DHT22;10827;50.878;4.382;2022-09-09T04:23:58;17.10;97.70
21338;DHT22;10827;50.878;4.382;2022-09-09T04:26:24;17.10;97.30
21338;DHT22;10827;50.878;4.382;2022-09-09T04:28:50;17.30;95.40
21338;DHT22;10827;50.878;4.382;2022-09-09T04:31:22;16.80;99.90
21338;DHT22;10827;50.878;4.382;2022-09-09T04:33:52;16.70;94.20
21338;DHT22;10827;50.878;4.382;2022-09-09T04:36:18;16.80;99.90
21338;DHT22;10827;50.878;4.382;2022-09-09T04:38:45;16.70;99.90
21338;DHT22;10827;50.878;4.382;2022-09-09T04:43:38;16.40;99.90
21338;DHT22;10827;50.878;4.382;2022-09-09T04:46:04;16.30;99.90
21338;DHT22;10827;50.878;4.382;2022-09-09T04:50:57;16.80;99.90
21338;DHT22;10827;50.878;4.382;2022-09-09T04:53:23;16.80;99.90
21338;DHT22;10827;50.878;4.382;2022-09-09T04:55:51;16.80;99.90
21338;DHT22;10827;50.878;4.382;2022-09-09T05:03:10;17.00;99.50
21338;DHT22;10827;50.878;4.382;2022-09-09T05:05:35;16.80;97.10
21338;DHT22;10827;50.878;4.382;2022-09-09T05:08:06;16.60;93.80
21338;DHT22;10827;50.878;4.382;2022-09-09T05:10:32;16.50;99.90
21338;DHT22;10827;50.878;4.382;2022-09-09T05:12:59;16.80;99.90
21338;DHT22;10827;50.878;4.382;2022-09-09T05:15:25;16.50;99.90
21338;DHT22;10827;50.878;4.382;2022-09-09T05:17:51;16.60;99.90
21338;DHT22;10827;50.878;4.382;2022-09-09T05:20:18;16.70;99.90
21338;DHT22;10827;50.878;4.382;2022-09-09T05:25:10;16.60;99.90
21338;DHT22;10827;50.878;4.382;2022-09-09T05:27:36;16.90;89.50
21338;DHT22;10827;50.878;4.382;2022-09-09T05:30:03;16.80;99.90
21338;DHT22;10827;50.878;4.382;2022-09-09T05:32:30;16.70;99.40
21338;DHT22;10827;50.878;4.382;2022-09-09T05:34:59;16.60;99.90
21338;DHT22;10827;50.878;4.382;2022-09-09T05:37:25;16.90;98.50
21338;DHT22;10827;50.878;4.382;2022-09-09T05:39:51;16.80;99.90
21338;DHT22;10827;50.878;4.382;2022-09-09T05:42:16;16.80;93.90
21338;DHT22;10827;50.878;4.382;2022-09-09T05:44:42;16.60;98.20
21338;DHT22;10827;50.878;4.382;2022-09-09T05:47:08;16.70;99.90
21338;DHT22;10827;50.878;4.382;2022-09-09T05:49:35;17.00;99.90
21338;DHT22;10827;50.878;4.382;2022-09-09T05:52:00;16.90;93.50
21338;DHT22;10827;50.878;4.382;2022-09-09T05:56:54;16.90;99.90
21338;DHT22;10827;50.878;4.382;2022-09-09T05:59:20;16.80;99.90
21338;DHT22;10827;50.878;4.382;2022-09-09T06:01:46;16.80;99.20
21338;DHT22;10827;50.878;4.382;2022-09-09T06:04:12;16.90;99.90
21338;DHT22;10827;50.878;4.382;2022-09-09T06:06:38;16.70;98.20
21338;DHT22;10827;50.878;4.382;2022-09-09T06:09:06;16.70;91.60
21338;DHT22;10827;50.878;4.382;2022-09-09T06:11:36;16.70;93.00
21338;DHT22;10827;50.878;4.382;2022-09-09T06:14:02;16.80;98.40
21338;DHT22;10827;50.878;4.382;2022-09-09T06:16:29;16.80;91.50
21338;DHT22;10827;50.878;4.382;2022-09-09T06:18:56;16.80;86.80
21338;DHT22;10827;50.878;4.382;2022-09-09T06:23:49;16.90;93.10
21338;DHT22;10827;50.878;4.382;2022-09-09T06:26:31;17.10;91.20
21338;DHT22;10827;50.878;4.382;2022-09-09T06:28:57;16.80;82.40
21338;DHT22;10827;50.878;4.382;2022-09-09T06:31:25;17.10;75.40
21338;DHT22;10827;50.878;4.382;2022-09-09T06:33:53;17.10;71.50
21338;DHT22;10827;50.878;4.382;2022-09-09T06:36:31;17.20;73.50
21338;DHT22;10827;50.878;4.382;2022-09-09T06:38:58;17.30;57.50
21338;DHT22;10827;50.878;4.382;2022-09-09T06:41:27;17.40;65.70
21338;DHT22;10827;50.878;4.382;2022-09-09T06:43:53;17.20;55.60
21338;DHT22;10827;50.878;4.382;2022-09-09T06:46:28;17.10;76.90
21338;DHT22;10827;50.878;4.382;2022-09-09T06:48:57;17.00;81.40
21338;DHT22;10827;50.878;4.382;2022-09-09T06:51:43;17.20;66.60
21338;DHT22;10827;50.878;4.382;2022-09-09T06:54:09;17.20;75.70
21338;DHT22;10827;50.878;4.382;2022-09-09T06:56:38;17.30;75.50
21338;DHT22;10827;50.878;4.382;2022-09-09T06:59:07;17.20;75.20
21338;DHT22;10827;50.878;4.382;2022-09-09T07:01:38;17.30;71.60
21338;DHT22;10827;50.878;4.382;2022-09-09T07:04:06;17.20;71.40
21338;DHT22;10827;50.878;4.382;2022-09-09T07:06:37;17.30;54.30
21338;DHT22;10827;50.878;4.382;2022-09-09T07:09:08;17.30;66.90
21338;DHT22;10827;50.878;4.382;2022-09-09T07:11:38;17.30;74.00
21338;DHT22;10827;50.878;4.382;2022-09-09T07:14:04;17.20;66.80
21338;DHT22;10827;50.878;4.382;2022-09-09T07:16:29;17.20;76.40
21338;DHT22;10827;50.878;4.382;2022-09-09T07:18:57;17.10;60.00
21338;DHT22;10827;50.878;4.382;2022-09-09T07:21:26;17.50;74.40
21338;DHT22;10827;50.878;4.382;2022-09-09T07:26:29;17.40;67.00
21338;DHT22;10827;50.878;4.382;2022-09-09T07:31:33;17.30;65.20
21338;DHT22;10827;50.878;4.382;2022-09-09T07:34:00;17.40;75.00
21338;DHT22;10827;50.878;4.382;2022-09-09T07:36:31;17.40;63.90
21338;DHT22;10827;50.878;4.382;2022-09-09T07:39:00;17.40;58.20
21338;DHT22;10827;50.878;4.382;2022-09-09T07:41:30;17.30;53.20
21338;DHT22;10827;50.878;4.382;2022-09-09T07:43:58;17.30;86.90
21338;DHT22;10827;50.878;4.382;2022-09-09T07:46:25;17.00;87.70
21338;DHT22;10827;50.878;4.382;2022-09-09T07:48:54;17.00;99.90
21338;DHT22;10827;50.878;4.382;2022-09-09T07:51:23;16.70;99.90
21338;DHT22;10827;50.878;4.382;2022-09-09T07:53:55;16.80;99.90
21338;DHT22;10827;50.878;4.382;2022-09-09T07:56:23;17.00;99.90
21338;DHT22;10827;50.878;4.382;2022-09-09T07:58:50;16.80;99.90
21338;DHT22;10827;50.878;4.382;2022-09-09T08:01:20;17.00;97.60
21338;DHT22;10827;50.878;4.382;2022-09-09T08:03:51;16.90;99.90
21338;DHT22;10827;50.878;4.382;2022-09-09T08:06:18;16.80;99.90
21338;DHT22;10827;50.878;4.382;2022-09-09T08:08:44;17.10;97.80
21338;DHT22;10827;50.878;4.382;2022-09-09T08:11:14;17.10;95.30
21338;DHT22;10827;50.878;4.382;2022-09-09T08:13:42;17.30;99.90
21338;DHT22;10827;50.878;4.382;2022-09-09T08:16:13;17.30;95.00
21338;DHT22;10827;50.878;4.382;2022-09-09T08:18:42;17.20;79.80
21338;DHT22;10827;50.878;4.382;2022-09-09T08:21:15;17.30;92.80
21338;DHT22;10827;50.878;4.382;2022-09-09T08:23:44;17.50;91.10
21338;DHT22;10827;50.878;4.382;2022-09-09T08:26:12;17.40;91.90
21338;DHT22;10827;50.878;4.382;2022-09-09T08:28:39;17.50;84.10
21338;DHT22;10827;50.878;4.382;2022-09-09T08:31:18;17.60;91.80
21338;DHT22;10827;50.878;4.382;2022-09-09T08:36:16;17.40;90.20
21338;DHT22;10827;50.878;4.382;2022-09-09T08:41:39;17.40;78.70
21338;DHT22;10827;50.878;4.382;2022-09-09T08:52:02;17.40;93.70
21338;DHT22;10827;50.878;4.382;2022-09-09T08:54:34;17.30;99.90
21338;DHT22;10827;50.878;4.382;2022-09-09T09:02:17;17.30;93.90
21338;DHT22;10827;50.878;4.382;2022-09-09T09:12:45;17.10;98.90
21338;DHT22;10827;50.878;4.382;2022-09-09T09:15:27;17.30;99.90
21338;DHT22;10827;50.878;4.382;2022-09-09T09:17:54;17.40;97.80
21338;DHT22;10827;50.878;4.382;2022-09-09T09:21:16;17.60;95.40
21338;DHT22;10827;50.878;4.382;2022-09-09T09:23:25;17.50;93.10
21338;DHT22;10827;50.878;4.382;2022-09-09T09:25:59;17.50;90.60
21338;DHT22;10827;50.878;4.382;2022-09-09T09:28:28;17.40;99.90
21338;DHT22;10827;50.878;4.382;2022-09-09T09:31:10;17.20;99.90
21338;DHT22;10827;50.878;4.382;2022-09-09T09:33:54;17.10;99.90
21338;DHT22;10827;50.878;4.382;2022-09-09T09:36:42;17.20;99.90
21338;DHT22;10827;50.878;4.382;2022-09-09T09:39:07;17.40;99.90
21338;DHT22;10827;50.878;4.382;2022-09-09T09:41:36;17.30;99.90
21338;DHT22;10827;50.878;4.382;2022-09-09T09:44:05;17.10;99.90
21338;DHT22;10827;50.878;4.382;2022-09-09T09:46:31;16.90;99.90
21338;DHT22;10827;50.878;4.382;2022-09-09T09:49:09;17.40;99.90
21338;DHT22;10827;50.878;4.382;2022-09-09T09:51:35;17.20;99.90
21338;DHT22;10827;50.878;4.382;2022-09-09T09:54:30;17.20;99.90
21338;DHT22;10827;50.878;4.382;2022-09-09T09:57:11;17.30;99.90
21338;DHT22;10827;50.878;4.382;2022-09-09T09:59:38;17.30;99.90
21338;DHT22;10827;50.878;4.382;2022-09-09T10:02:15;17.30;99.90
21338;DHT22;10827;50.878;4.382;2022-09-09T10:04:41;17.40;99.90
21338;DHT22;10827;50.878;4.382;2022-09-09T10:07:12;17.20;99.90
21338;DHT22;10827;50.878;4.382;2022-09-09T10:09:39;17.60;97.50
21338;DHT22;10827;50.878;4.382;2022-09-09T10:12:23;17.20;99.90
21338;DHT22;10827;50.878;4.382;2022-09-09T10:17:58;17.00;99.90
21338;DHT22;10827;50.878;4.382;2022-09-09T10:23:46;17.70;99.90
21338;DHT22;10827;50.878;4.382;2022-09-09T10:36:48;17.90;88.30
21338;DHT22;10827;50.878;4.382;2022-09-09T10:41:53;18.10;90.00
21338;DHT22;10827;50.878;4.382;2022-09-09T10:55:20;18.50;57.20
21338;DHT22;10827;50.878;4.382;2022-09-09T10:57:53;18.70;53.00
21338;DHT22;10827;50.878;4.382;2022-09-09T11:00:24;18.60;62.20
21338;DHT22;10827;50.878;4.382;2022-09-09T11:03:17;18.50;41.50
21338;DHT22;10827;50.878;4.382;2022-09-09T11:05:49;18.60;63.00
21338;DHT22;10827;50.878;4.382;2022-09-09T11:08:25;18.80;51.20
21338;DHT22;10827;50.878;4.382;2022-09-09T11:19:04;18.60;40.60
21338;DHT22;10827;50.878;4.382;2022-09-09T11:21:42;18.20;39.40
21338;DHT22;10827;50.878;4.382;2022-09-09T11:24:33;18.10;66.00
21338;DHT22;10827;50.878;4.382;2022-09-09T11:27:06;18.40;52.70
21338;DHT22;10827;50.878;4.382;2022-09-09T11:38:48;18.20;66.80
21338;DHT22;10827;50.878;4.382;2022-09-09T11:41:17;18.00;83.40
21338;DHT22;10827;50.878;4.382;2022-09-09T11:43:52;18.60;61.90
21338;DHT22;10827;50.878;4.382;2022-09-09T11:46:20;18.00;58.30
21338;DHT22;10827;50.878;4.382;2022-09-09T11:49:03;18.10;84.30
21338;DHT22;10827;50.878;4.382;2022-09-09T11:51:31;18.30;81.40
21338;DHT22;10827;50.878;4.382;2022-09-09T11:54:02;18.00;58.20
21338;DHT22;10827;50.878;4.382;2022-09-09T11:56:47;18.00;86.50
21338;DHT22;10827;50.878;4.382;2022-09-09T11:59:27;18.10;81.10
21338;DHT22;10827;50.878;4.382;2022-09-09T12:02:03;18.10;57.80
21338;DHT22;10827;50.878;4.382;2022-09-09T12:04:40;17.70;81.00
21338;DHT22;10827;50.878;4.382;2022-09-09T12:09:56;18.10;61.10
21338;DHT22;10827;50.878;4.382;2022-09-09T12:12:28;18.20;61.80
21338;DHT22;10827;50.878;4.382;2022-09-09T12:15:16;18.30;66.20
21338;DHT22;10827;50.878;4.382;2022-09-09T12:17:43;18.20;74.80
21338;DHT22;10827;50.878;4.382;2022-09-09T12:33:44;18.20;61.80
21338;DHT22;10827;50.878;4.382;2022-09-09T12:36:32;18.30;60.00
21338;DHT22;10827;50.878;4.382;2022-09-09T12:39:15;18.10;59.80
21338;DHT22;10827;50.878;4.382;2022-09-09T12:41:51;18.20;67.00
21338;DHT22;10827;50.878;4.382;2022-09-09T12:44:24;18.50;68.60
21338;DHT22;10827;50.878;4.382;2022-09-09T12:46:51;18.60;58.90
21338;DHT22;10827;50.878;4.382;2022-09-09T12:52:11;18.60;38.40
21338;DHT22;10827;50.878;4.382;2022-09-09T12:54:44;19.00;53.70
21338;DHT22;10827;50.878;4.382;2022-09-09T12:57:12;19.10;19.00
21338;DHT22;10827;50.878;4.382;2022-09-09T12:59:43;19.20;21.00
21338;DHT22;10827;50.878;4.382;2022-09-09T13:02:22;19.40;17.20
21338;DHT22;10827;50.878;4.382;2022-09-09T13:04:48;19.20;12.20
21338;DHT22;10827;50.878;4.382;2022-09-09T13:07:16;22.20;5.40
21338;DHT22;10827;50.878;4.382;2022-09-09T13:09:43;19.20;13.60
21338;DHT22;10827;50.878;4.382;2022-09-09T13:12:21;18.90;1.00
21338;DHT22;10827;50.878;4.382;2022-09-09T13:14:51;19.40;22.40
21338;DHT22;10827;50.878;4.382;2022-09-09T13:17:23;19.10;6.30
21338;DHT22;10827;50.878;4.382;2022-09-09T13:19:50;19.20;26.70
21338;DHT22;10827;50.878;4.382;2022-09-09T13:22:38;19.10;13.10
21338;DHT22;10827;50.878;4.382;2022-09-09T13:28:35;19.00;14.30
21338;DHT22;10827;50.878;4.382;2022-09-09T13:30:42;19.30;17.60
21338;DHT22;10827;50.878;4.382;2022-09-09T13:35:58;19.60;18.60
21338;DHT22;10827;50.878;4.382;2022-09-09T13:38:25;19.60;8.00
21338;DHT22;10827;50.878;4.382;2022-09-09T13:43:22;19.70;1.00
21338;DHT22;10827;50.878;4.382;2022-09-09T13:46:00;19.50;1.00
21338;DHT22;10827;50.878;4.382;2022-09-09T13:48:27;19.60;1.00
21338;DHT22;10827;50.878;4.382;2022-09-09T13:50:58;19.90;1.00
21338;DHT22;10827;50.878;4.382;2022-09-09T13:53:25;20.00;1.00
21338;DHT22;10827;50.878;4.382;2022-09-09T13:55:51;19.90;1.00
21338;DHT22;10827;50.878;4.382;2022-09-09T13:58:18;19.90;1.00
21338;DHT22;10827;50.878;4.382;2022-09-09T14:00:45;19.70;1.00
21338;DHT22;10827;50.878;4.382;2022-09-09T14:05:38;19.70;1.00
21338;DHT22;10827;50.878;4.382;2022-09-09T14:08:06;19.80;1.00
21338;DHT22;10827;50.878;4.382;2022-09-09T14:10:32;19.80;1.00
21338;DHT22;10827;50.878;4.382;2022-09-09T14:15:24;20.10;1.00
21338;DHT22;10827;50.878;4.382;2022-09-09T14:17:50;20.40;1.00
21338;DHT22;10827;50.878;4.382;2022-09-09T14:22:44;20.20;1.00
21338;DHT22;10827;50.878;4.382;2022-09-09T14:25:10;19.90;1.00
21338;DHT22;10827;50.878;4.382;2022-09-09T14:27:39;19.60;1.00
21338;DHT22;10827;50.878;4.382;2022-09-09T14:30:06;20.00;1.00
21338;DHT22;10827;50.878;4.382;2022-09-09T14:32:32;20.00;1.00
21338;DHT22;10827;50.878;4.382;2022-09-09T14:37:24;19.90;1.00
21338;DHT22;10827;50.878;4.382;2022-09-09T14:39:50;20.10;1.00
21338;DHT22;10827;50.878;4.382;2022-09-09T14:42:18;20.10;1.00
21338;DHT22;10827;50.878;4.382;2022-09-09T14:47:10;20.70;1.00
21338;DHT22;10827;50.878;4.382;2022-09-09T14:49:36;20.80;1.00
21338;DHT22;10827;50.878;4.382;2022-09-09T14:52:03;21.00;1.00
21338;DHT22;10827;50.878;4.382;2022-09-09T14:54:30;21.10;1.00
21338;DHT22;10827;50.878;4.382;2022-09-09T14:59:27;21.30;1.00
21338;DHT22;10827;50.878;4.382;2022-09-09T15:01:54;20.70;1.00
21338;DHT22;10827;50.878;4.382;2022-09-09T15:04:20;20.60;1.00
21338;DHT22;10827;50.878;4.382;2022-09-09T15:06:47;20.90;1.00
21338;DHT22;10827;50.878;4.382;2022-09-09T15:09:17;20.90;1.00
21338;DHT22;10827;50.878;4.382;2022-09-09T15:11:46;20.50;1.00
21338;DHT22;10827;50.878;4.382;2022-09-09T15:14:12;20.50;1.00
21338;DHT22;10827;50.878;4.382;2022-09-09T15:16:40;20.10;1.00
21338;DHT22;10827;50.878;4.382;2022-09-09T15:19:10;20.10;1.00
21338;DHT22;10827;50.878;4.382;2022-09-09T15:21:37;20.00;1.00
21338;DHT22;10827;50.878;4.382;2022-09-09T15:24:04;20.30;1.00
21338;DHT22;10827;50.878;4.382;2022-09-09T15:26:30;20.40;1.00
21338;DHT22;10827;50.878;4.382;2022-09-09T15:31:28;20.20;1.00
21338;DHT22;10827;50.878;4.382;2022-09-09T15:33:57;20.10;1.00
21338;DHT22;10827;50.878;4.382;2022-09-09T15:36:31;20.00;1.00
21338;DHT22;10827;50.878;4.382;2022-09-09T15:38:59;20.00;1.00
21338;DHT22;10827;50.878;4.382;2022-09-09T15:41:25;20.10;1.00
21338;DHT22;10827;50.878;4.382;2022-09-09T15:43:52;19.90;1.00
21338;DHT22;10827;50.878;4.382;2022-09-09T15:46:32;20.60;1.00
21338;DHT22;10827;50.878;4.382;2022-09-09T15:49:07;20.60;1.00
21338;DHT22;10827;50.878;4.382;2022-09-09T15:51:34;20.70;1.00
21338;DHT22;10827;50.878;4.382;2022-09-09T15:54:01;20.60;1.00
21338;DHT22;10827;50.878;4.382;2022-09-09T15:56:28;20.40;1.00
21338;DHT22;10827;50.878;4.382;2022-09-09T15:58:56;20.50;1.00
21338;DHT22;10827;50.878;4.382;2022-09-09T16:01:24;20.20;1.00
21338;DHT22;10827;50.878;4.382;2022-09-09T16:03:50;20.00;1.00
21338;DHT22;10827;50.878;4.382;2022-09-09T16:06:21;20.20;1.00
21338;DHT22;10827;50.878;4.382;2022-09-09T16:08:50;20.30;1.00
21338;DHT22;10827;50.878;4.382;2022-09-09T16:11:25;20.00;1.00
21338;DHT22;10827;50.878;4.382;2022-09-09T16:13:52;19.80;1.00
21338;DHT22;10827;50.878;4.382;2022-09-09T16:16:21;19.90;1.00
21338;DHT22;10827;50.878;4.382;2022-09-09T16:18:52;19.70;1.00
21338;DHT22;10827;50.878;4.382;2022-09-09T16:21:23;19.70;1.00
21338;DHT22;10827;50.878;4.382;2022-09-09T16:23:50;19.60;1.00
21338;DHT22;10827;50.878;4.382;2022-09-09T16:26:17;19.70;1.00
21338;DHT22;10827;50.878;4.382;2022-09-09T16:28:43;19.50;1.00
21338;DHT22;10827;50.878;4.382;2022-09-09T16:31:12;19.40;1.00
21338;DHT22;10827;50.878;4.382;2022-09-09T16:33:40;19.30;1.00
21338;DHT22;10827;50.878;4.382;2022-09-09T16:36:11;19.50;1.00
21338;DHT22;10827;50.878;4.382;2022-09-09T16:41:04;19.70;1.00
21338;DHT22;10827;50.878;4.382;2022-09-09T16:43:34;19.70;1.00
21338;DHT22;10827;50.878;4.382;2022-09-09T16:46:22;19.90;1.00
21338;DHT22;10827;50.878;4.382;2022-09-09T16:48:48;20.00;1.00
21338;DHT22;10827;50.878;4.382;2022-09-09T16:51:17;20.00;1.00
21338;DHT22;10827;50.878;4.382;2022-09-09T16:53:44;20.00;1.00
21338;DHT22;10827;50.878;4.382;2022-09-09T16:56:13;19.90;1.00
21338;DHT22;10827;50.878;4.382;2022-09-09T16:58:40;19.60;1.00
21338;DHT22;10827;50.878;4.382;2022-09-09T17:01:09;19.60;1.00
21338;DHT22;10827;50.878;4.382;2022-09-09T17:03:40;19.60;1.00
21338;DHT22;10827;50.878;4.382;2022-09-09T17:06:13;19.50;1.00
21338;DHT22;10827;50.878;4.382;2022-09-09T17:08:40;19.20;1.00
21338;DHT22;10827;50.878;4.382;2022-09-09T17:11:17;19.40;1.00
21338;DHT22;10827;50.878;4.382;2022-09-09T17:13:45;19.30;1.00
21338;DHT22;10827;50.878;4.382;2022-09-09T17:16:12;19.40;1.00
21338;DHT22;10827;50.878;4.382;2022-09-09T17:18:38;19.20;13.10
21338;DHT22;10827;50.878;4.382;2022-09-09T17:21:12;19.40;1.00
21338;DHT22;10827;50.878;4.382;2022-09-09T17:23:41;19.10;11.00
21338;DHT22;10827;50.878;4.382;2022-09-09T17:26:11;20.10;1.00
21338;DHT22;10827;50.878;4.382;2022-09-09T17:28:39;19.50;1.00
21338;DHT22;10827;50.878;4.382;2022-09-09T17:31:09;19.30;1.60
21338;DHT22;10827;50.878;4.382;2022-09-09T17:33:38;19.00;1.00
21338;DHT22;10827;50.878;4.382;2022-09-09T17:36:13;19.00;1.00
21338;DHT22;10827;50.878;4.382;2022-09-09T17:38:40;18.90;1.00
21338;DHT22;10827;50.878;4.382;2022-09-09T17:41:12;19.00;1.00
21338;DHT22;10827;50.878;4.382;2022-09-09T17:43:38;18.90;1.00
21338;DHT22;10827;50.878;4.382;2022-09-09T17:46:27;19.00;1.00
21338;DHT22;10827;50.878;4.382;2022-09-09T17:48:55;18.80;1.00
21338;DHT22;10827;50.878;4.382;2022-09-09T17:51:22;18.80;1.00
21338;DHT22;10827;50.878;4.382;2022-09-09T17:53:54;18.60;1.00
21338;DHT22;10827;50.878;4.382;2022-09-09T17:56:22;18.60;1.00
21338;DHT22;10827;50.878;4.382;2022-09-09T17:58:50;18.50;1.00
21338;DHT22;10827;50.878;4.382;2022-09-09T18:01:21;18.40;1.00
21338;DHT22;10827;50.878;4.382;2022-09-09T18:03:48;18.40;1.00
21338;DHT22;10827;50.878;4.382;2022-09-09T18:06:16;18.30;1.00
21338;DHT22;10827;50.878;4.382;2022-09-09T18:08:48;18.20;1.00
21338;DHT22;10827;50.878;4.382;2022-09-09T18:11:15;18.30;1.00
21338;DHT22;10827;50.878;4.382;2022-09-09T18:13:40;18.30;1.00
21338;DHT22;10827;50.878;4.382;2022-09-09T18:16:07;18.10;1.00
21338;DHT22;10827;50.878;4.382;2022-09-09T18:18:34;18.20;1.00
21338;DHT22;10827;50.878;4.382;2022-09-09T18:21:05;18.30;1.00
21338;DHT22;10827;50.878;4.382;2022-09-09T18:23:40;17.90;1.00
21338;DHT22;10827;50.878;4.382;2022-09-09T18:26:13;18.20;1.00
21338;DHT22;10827;50.878;4.382;2022-09-09T18:28:41;17.80;1.00
21338;DHT22;10827;50.878;4.382;2022-09-09T18:31:12;18.10;1.00
21338;DHT22;10827;50.878;4.382;2022-09-09T18:33:40;18.10;1.00
21338;DHT22;10827;50.878;4.382;2022-09-09T18:36:13;18.00;1.00
21338;DHT22;10827;50.878;4.382;2022-09-09T18:38:40;18.10;1.00
21338;DHT22;10827;50.878;4.382;2022-09-09T18:41:14;18.10;1.00
21338;DHT22;10827;50.878;4.382;2022-09-09T18:43:41;18.00;1.00
21338;DHT22;10827;50.878;4.382;2022-09-09T18:46:09;18.00;1.00
21338;DHT22;10827;50.878;4.382;2022-09-09T18:48:35;17.90;1.00
21338;DHT22;10827;50.878;4.382;2022-09-09T18:51:07;17.90;2.70
21338;DHT22;10827;50.878;4.382;2022-09-09T18:53:35;17.90;1.00
21338;DHT22;10827;50.878;4.382;2022-09-09T18:56:04;18.00;9.90
21338;DHT22;10827;50.878;4.382;2022-09-09T18:58:31;17.90;6.20
21338;DHT22;10827;50.878;4.382;2022-09-09T19:00:59;17.90;10.10
21338;DHT22;10827;50.878;4.382;2022-09-09T19:03:28;17.80;16.50
21338;DHT22;10827;50.878;4.382;2022-09-09T19:06:05;17.80;21.50
21338;DHT22;10827;50.878;4.382;2022-09-09T19:08:39;17.90;21.10
21338;DHT22;10827;50.878;4.382;2022-09-09T19:11:06;18.00;20.00
21338;DHT22;10827;50.878;4.382;2022-09-09T19:13:33;17.90;20.90
21338;DHT22;10827;50.878;4.382;2022-09-09T19:18:30;17.70;31.60
21338;DHT22;10827;50.878;4.382;2022-09-09T19:20:56;17.70;29.60